METAR Data
IDs: Format: Raw Decoded Include TAF

Data at: 0105 UTC 20 Jul 2019

METAR for:KIKV (Ankeny Rgnl, IA, US)
Text:KIKV 200055Z AUTO 20009G18KT 10SM CLR 34/25 A2971 RMK AO2
Temperature: 34.0°C ( 93°F)
Dewpoint: 25.0°C ( 77°F) [RH = 60%]
Pressure (altimeter):29.71 inches Hg (1006.2 mb)
Winds:from the SSW (200 degrees) at 10 MPH (9 knots; 4.6 m/s) gusting to 21 MPH (18 knots; 9.3 m/s)
Visibility:10 or more sm (16+ km)
Ceiling:at least 12,000 feet AGL
Clouds:sky clear below 12,000 feet AGL
QC Flag:automated observation with no human augmentation